sensor_id;sensor_type;location;lat;lon;timestamp;P1;durP1;ratioP1;P2;durP2;ratioP2
5507;SDS011;2776;51.046;6.772;2023-04-15T00:00:19;4.47;;;2.27;;
5507;SDS011;2776;51.046;6.772;2023-04-15T00:02:46;3.43;;;2.40;;
5507;SDS011;2776;51.046;6.772;2023-04-15T00:05:13;6.60;;;3.13;;
5507;SDS011;2776;51.046;6.772;2023-04-15T00:07:42;6.23;;;3.73;;
5507;SDS011;2776;51.046;6.772;2023-04-15T00:10:09;7.37;;;2.90;;
5507;SDS011;2776;51.046;6.772;2023-04-15T00:12:36;3.73;;;2.37;;
5507;SDS011;2776;51.046;6.772;2023-04-15T00:15:03;3.77;;;2.50;;
5507;SDS011;2776;51.046;6.772;2023-04-15T00:17:32;3.20;;;2.10;;
5507;SDS011;2776;51.046;6.772;2023-04-15T00:19:58;4.53;;;2.30;;
5507;SDS011;2776;51.046;6.772;2023-04-15T00:22:25;3.27;;;2.63;;
5507;SDS011;2776;51.046;6.772;2023-04-15T00:24:53;2.67;;;2.23;;
5507;SDS011;2776;51.046;6.772;2023-04-15T00:27:20;3.70;;;2.17;;
5507;SDS011;2776;51.046;6.772;2023-04-15T00:29:47;5.67;;;2.80;;
5507;SDS011;2776;51.046;6.772;2023-04-15T00:32:14;3.40;;;2.37;;
5507;SDS011;2776;51.046;6.772;2023-04-15T00:34:40;4.40;;;2.83;;
5507;SDS011;2776;51.046;6.772;2023-04-15T00:37:07;4.40;;;2.50;;
5507;SDS011;2776;51.046;6.772;2023-04-15T00:39:34;4.57;;;2.10;;
5507;SDS011;2776;51.046;6.772;2023-04-15T00:42:03;3.63;;;2.20;;
5507;SDS011;2776;51.046;6.772;2023-04-15T00:44:30;4.17;;;2.30;;
5507;SDS011;2776;51.046;6.772;2023-04-15T00:46:57;4.00;;;2.30;;
5507;SDS011;2776;51.046;6.772;2023-04-15T00:49:25;3.37;;;2.23;;
5507;SDS011;2776;51.046;6.772;2023-04-15T00:51:52;4.70;;;2.00;;
5507;SDS011;2776;51.046;6.772;2023-04-15T00:54:19;3.07;;;2.80;;
5507;SDS011;2776;51.046;6.772;2023-04-15T00:56:46;3.97;;;2.73;;
5507;SDS011;2776;51.046;6.772;2023-04-15T00:59:14;4.43;;;2.67;;
5507;SDS011;2776;51.046;6.772;2023-04-15T01:01:43;3.83;;;3.00;;
5507;SDS011;2776;51.046;6.772;2023-04-15T01:04:11;4.73;;;3.13;;
5507;SDS011;2776;51.046;6.772;2023-04-15T01:06:37;3.23;;;2.60;;
5507;SDS011;2776;51.046;6.772;2023-04-15T01:09:05;3.03;;;2.73;;
5507;SDS011;2776;51.046;6.772;2023-04-15T01:11:31;4.90;;;2.60;;
5507;SDS011;2776;51.046;6.772;2023-04-15T01:13:59;3.47;;;3.17;;
5507;SDS011;2776;51.046;6.772;2023-04-15T01:16:27;10.30;;;3.23;;
5507;SDS011;2776;51.046;6.772;2023-04-15T01:18:53;4.13;;;2.37;;
5507;SDS011;2776;51.046;6.772;2023-04-15T01:21:21;4.87;;;2.87;;
5507;SDS011;2776;51.046;6.772;2023-04-15T01:23:48;4.13;;;2.70;;
5507;SDS011;2776;51.046;6.772;2023-04-15T01:26:19;4.77;;;3.47;;
5507;SDS011;2776;51.046;6.772;2023-04-15T01:28:47;5.53;;;3.37;;
5507;SDS011;2776;51.046;6.772;2023-04-15T01:31:14;6.13;;;2.97;;
5507;SDS011;2776;51.046;6.772;2023-04-15T01:33:42;4.77;;;3.17;;
5507;SDS011;2776;51.046;6.772;2023-04-15T01:36:08;4.40;;;2.87;;
5507;SDS011;2776;51.046;6.772;2023-04-15T01:38:36;4.33;;;2.70;;
5507;SDS011;2776;51.046;6.772;2023-04-15T01:41:03;3.63;;;3.00;;
5507;SDS011;2776;51.046;6.772;2023-04-15T01:43:32;2.83;;;2.60;;
5507;SDS011;2776;51.046;6.772;2023-04-15T01:46:00;3.50;;;2.50;;
5507;SDS011;2776;51.046;6.772;2023-04-15T01:48:26;4.93;;;3.30;;
5507;SDS011;2776;51.046;6.772;2023-04-15T01:50:54;4.37;;;3.13;;
5507;SDS011;2776;51.046;6.772;2023-04-15T01:53:22;3.93;;;3.03;;
5507;SDS011;2776;51.046;6.772;2023-04-15T01:55:49;3.67;;;2.90;;
5507;SDS011;2776;51.046;6.772;2023-04-15T01:58:16;3.67;;;2.50;;
5507;SDS011;2776;51.046;6.772;2023-04-15T02:00:45;5.33;;;2.60;;
5507;SDS011;2776;51.046;6.772;2023-04-15T02:03:12;4.53;;;2.70;;
5507;SDS011;2776;51.046;6.772;2023-04-15T02:05:39;4.03;;;2.60;;
5507;SDS011;2776;51.046;6.772;2023-04-15T02:08:06;3.37;;;2.70;;
5507;SDS011;2776;51.046;6.772;2023-04-15T02:10:34;3.47;;;2.70;;
5507;SDS011;2776;51.046;6.772;2023-04-15T02:13:00;5.63;;;2.90;;
5507;SDS011;2776;51.046;6.772;2023-04-15T02:15:27;2.70;;;2.50;;
5507;SDS011;2776;51.046;6.772;2023-04-15T02:17:55;5.80;;;3.57;;
5507;SDS011;2776;51.046;6.772;2023-04-15T02:20:23;5.47;;;3.37;;
5507;SDS011;2776;51.046;6.772;2023-04-15T02:22:50;7.40;;;3.80;;
5507;SDS011;2776;51.046;6.772;2023-04-15T02:25:17;3.87;;;3.00;;
5507;SDS011;2776;51.046;6.772;2023-04-15T02:27:44;11.57;;;3.80;;
5507;SDS011;2776;51.046;6.772;2023-04-15T02:30:11;4.73;;;2.70;;
5507;SDS011;2776;51.046;6.772;2023-04-15T02:32:38;4.53;;;3.10;;
5507;SDS011;2776;51.046;6.772;2023-04-15T02:35:09;3.60;;;3.00;;
5507;SDS011;2776;51.046;6.772;2023-04-15T02:37:36;3.73;;;2.50;;
5507;SDS011;2776;51.046;6.772;2023-04-15T02:40:07;4.40;;;2.40;;
5507;SDS011;2776;51.046;6.772;2023-04-15T02:42:36;4.30;;;2.60;;
5507;SDS011;2776;51.046;6.772;2023-04-15T02:45:03;4.97;;;2.90;;
5507;SDS011;2776;51.046;6.772;2023-04-15T02:47:31;3.90;;;2.83;;
5507;SDS011;2776;51.046;6.772;2023-04-15T02:49:58;4.33;;;3.10;;
5507;SDS011;2776;51.046;6.772;2023-04-15T02:52:27;2.97;;;2.70;;
5507;SDS011;2776;51.046;6.772;2023-04-15T02:54:53;3.53;;;2.80;;
5507;SDS011;2776;51.046;6.772;2023-04-15T02:57:24;5.40;;;3.30;;
5507;SDS011;2776;51.046;6.772;2023-04-15T02:59:51;6.30;;;3.17;;
5507;SDS011;2776;51.046;6.772;2023-04-15T03:02:18;4.87;;;3.17;;
5507;SDS011;2776;51.046;6.772;2023-04-15T03:04:44;5.50;;;3.10;;
5507;SDS011;2776;51.046;6.772;2023-04-15T03:07:11;5.13;;;3.37;;
5507;SDS011;2776;51.046;6.772;2023-04-15T03:09:39;5.13;;;3.60;;
5507;SDS011;2776;51.046;6.772;2023-04-15T03:12:06;4.53;;;3.80;;
5507;SDS011;2776;51.046;6.772;2023-04-15T03:14:33;6.57;;;3.90;;
5507;SDS011;2776;51.046;6.772;2023-04-15T03:16:59;5.30;;;3.63;;
5507;SDS011;2776;51.046;6.772;2023-04-15T03:19:26;4.87;;;3.30;;
5507;SDS011;2776;51.046;6.772;2023-04-15T03:21:53;6.07;;;3.40;;
5507;SDS011;2776;51.046;6.772;2023-04-15T03:24:20;3.40;;;3.10;;
5507;SDS011;2776;51.046;6.772;2023-04-15T03:26:48;4.30;;;2.63;;
5507;SDS011;2776;51.046;6.772;2023-04-15T03:29:15;3.80;;;3.20;;
5507;SDS011;2776;51.046;6.772;2023-04-15T03:31:42;4.67;;;3.03;;
5507;SDS011;2776;51.046;6.772;2023-04-15T03:34:08;3.30;;;3.00;;
5507;SDS011;2776;51.046;6.772;2023-04-15T03:36:35;5.33;;;2.97;;
5507;SDS011;2776;51.046;6.772;2023-04-15T03:39:02;3.10;;;2.90;;
5507;SDS011;2776;51.046;6.772;2023-04-15T03:41:29;4.97;;;2.70;;
5507;SDS011;2776;51.046;6.772;2023-04-15T03:43:58;3.10;;;2.43;;
5507;SDS011;2776;51.046;6.772;2023-04-15T03:46:25;2.47;;;2.20;;
5507;SDS011;2776;51.046;6.772;2023-04-15T03:48:51;3.60;;;2.37;;
5507;SDS011;2776;51.046;6.772;2023-04-15T03:51:18;2.63;;;2.43;;
5507;SDS011;2776;51.046;6.772;2023-04-15T03:53:45;3.10;;;2.80;;
5507;SDS011;2776;51.046;6.772;2023-04-15T03:56:12;3.03;;;2.73;;
5507;SDS011;2776;51.046;6.772;2023-04-15T03:58:38;4.00;;;3.00;;
5507;SDS011;2776;51.046;6.772;2023-04-15T04:01:07;3.63;;;3.07;;
5507;SDS011;2776;51.046;6.772;2023-04-15T04:03:33;3.37;;;3.07;;
5507;SDS011;2776;51.046;6.772;2023-04-15T04:06:01;4.63;;;3.07;;
5507;SDS011;2776;51.046;6.772;2023-04-15T04:08:27;3.47;;;2.80;;
5507;SDS011;2776;51.046;6.772;2023-04-15T04:10:54;3.53;;;3.17;;
5507;SDS011;2776;51.046;6.772;2023-04-15T04:13:21;4.37;;;3.47;;
5507;SDS011;2776;51.046;6.772;2023-04-15T04:15:48;3.90;;;3.33;;
5507;SDS011;2776;51.046;6.772;2023-04-15T04:18:16;3.83;;;3.10;;
5507;SDS011;2776;51.046;6.772;2023-04-15T04:20:42;5.23;;;3.57;;
5507;SDS011;2776;51.046;6.772;2023-04-15T04:23:09;4.17;;;3.57;;
5507;SDS011;2776;51.046;6.772;2023-04-15T04:25:36;4.40;;;3.60;;
5507;SDS011;2776;51.046;6.772;2023-04-15T04:28:03;6.83;;;3.90;;
5507;SDS011;2776;51.046;6.772;2023-04-15T04:30:30;4.70;;;3.87;;
5507;SDS011;2776;51.046;6.772;2023-04-15T04:32:57;5.03;;;4.40;;
5507;SDS011;2776;51.046;6.772;2023-04-15T04:35:25;5.03;;;4.43;;
5507;SDS011;2776;51.046;6.772;2023-04-15T04:37:52;6.77;;;3.40;;
5507;SDS011;2776;51.046;6.772;2023-04-15T04:40:19;5.13;;;3.33;;
5507;SDS011;2776;51.046;6.772;2023-04-15T04:42:46;3.13;;;2.93;;
5507;SDS011;2776;51.046;6.772;2023-04-15T04:45:12;4.33;;;3.50;;
5507;SDS011;2776;51.046;6.772;2023-04-15T04:47:39;5.43;;;4.23;;
5507;SDS011;2776;51.046;6.772;2023-04-15T04:50:06;6.17;;;3.77;;
5507;SDS011;2776;51.046;6.772;2023-04-15T04:52:35;3.40;;;3.10;;
5507;SDS011;2776;51.046;6.772;2023-04-15T04:55:02;4.57;;;3.80;;
5507;SDS011;2776;51.046;6.772;2023-04-15T04:57:29;4.57;;;3.70;;
5507;SDS011;2776;51.046;6.772;2023-04-15T04:59:56;5.83;;;4.20;;
5507;SDS011;2776;51.046;6.772;2023-04-15T05:02:23;5.43;;;4.83;;
5507;SDS011;2776;51.046;6.772;2023-04-15T05:04:51;7.23;;;5.10;;
5507;SDS011;2776;51.046;6.772;2023-04-15T05:07:18;6.60;;;5.17;;
5507;SDS011;2776;51.046;6.772;2023-04-15T05:09:46;7.10;;;5.70;;
5507;SDS011;2776;51.046;6.772;2023-04-15T05:12:13;6.33;;;5.03;;
5507;SDS011;2776;51.046;6.772;2023-04-15T05:14:40;5.30;;;4.60;;
5507;SDS011;2776;51.046;6.772;2023-04-15T05:17:07;5.10;;;4.37;;
5507;SDS011;2776;51.046;6.772;2023-04-15T05:19:33;4.53;;;4.03;;
5507;SDS011;2776;51.046;6.772;2023-04-15T05:22:00;5.70;;;4.00;;
5507;SDS011;2776;51.046;6.772;2023-04-15T05:24:27;7.13;;;5.00;;
5507;SDS011;2776;51.046;6.772;2023-04-15T05:26:55;6.80;;;4.90;;
5507;SDS011;2776;51.046;6.772;2023-04-15T05:29:22;7.50;;;4.80;;
5507;SDS011;2776;51.046;6.772;2023-04-15T05:31:49;6.87;;;4.47;;
5507;SDS011;2776;51.046;6.772;2023-04-15T05:34:15;5.77;;;5.17;;
5507;SDS011;2776;51.046;6.772;2023-04-15T05:36:42;6.10;;;4.23;;
5507;SDS011;2776;51.046;6.772;2023-04-15T05:39:09;6.67;;;5.43;;
5507;SDS011;2776;51.046;6.772;2023-04-15T05:41:36;4.47;;;4.07;;
5507;SDS011;2776;51.046;6.772;2023-04-15T05:44:04;3.93;;;3.53;;
5507;SDS011;2776;51.046;6.772;2023-04-15T05:46:31;4.27;;;3.87;;
5507;SDS011;2776;51.046;6.772;2023-04-15T05:48:57;4.23;;;3.83;;
5507;SDS011;2776;51.046;6.772;2023-04-15T05:51:24;5.30;;;3.47;;
5507;SDS011;2776;51.046;6.772;2023-04-15T05:53:51;3.87;;;3.20;;
5507;SDS011;2776;51.046;6.772;2023-04-15T05:56:18;6.30;;;3.60;;
5507;SDS011;2776;51.046;6.772;2023-04-15T05:58:45;3.93;;;2.93;;
5507;SDS011;2776;51.046;6.772;2023-04-15T06:01:13;4.73;;;3.00;;
5507;SDS011;2776;51.046;6.772;2023-04-15T06:03:40;3.67;;;3.30;;
5507;SDS011;2776;51.046;6.772;2023-04-15T06:06:07;4.63;;;3.43;;
5507;SDS011;2776;51.046;6.772;2023-04-15T06:08:34;8.23;;;3.53;;
5507;SDS011;2776;51.046;6.772;2023-04-15T06:11:01;8.17;;;3.10;;
5507;SDS011;2776;51.046;6.772;2023-04-15T06:13:28;11.23;;;3.43;;
5507;SDS011;2776;51.046;6.772;2023-04-15T06:15:54;6.90;;;3.40;;
5507;SDS011;2776;51.046;6.772;2023-04-15T06:18:23;6.73;;;3.37;;
5507;SDS011;2776;51.046;6.772;2023-04-15T06:20:49;12.50;;;3.47;;
5507;SDS011;2776;51.046;6.772;2023-04-15T06:23:16;7.97;;;4.10;;
5507;SDS011;2776;51.046;6.772;2023-04-15T06:25:43;4.27;;;3.20;;
5507;SDS011;2776;51.046;6.772;2023-04-15T06:28:10;5.70;;;3.73;;
5507;SDS011;2776;51.046;6.772;2023-04-15T06:30:37;8.33;;;3.87;;
5507;SDS011;2776;51.046;6.772;2023-04-15T06:33:04;5.27;;;3.70;;
5507;SDS011;2776;51.046;6.772;2023-04-15T06:35:32;8.07;;;4.03;;
5507;SDS011;2776;51.046;6.772;2023-04-15T06:37:59;5.63;;;3.93;;
5507;SDS011;2776;51.046;6.772;2023-04-15T06:40:26;6.20;;;4.17;;
5507;SDS011;2776;51.046;6.772;2023-04-15T06:42:53;5.00;;;4.07;;
5507;SDS011;2776;51.046;6.772;2023-04-15T06:45:20;5.50;;;4.00;;
5507;SDS011;2776;51.046;6.772;2023-04-15T06:47:47;8.70;;;5.20;;
5507;SDS011;2776;51.046;6.772;2023-04-15T06:50:13;8.50;;;5.60;;
5507;SDS011;2776;51.046;6.772;2023-04-15T06:52:41;8.20;;;5.07;;
5507;SDS011;2776;51.046;6.772;2023-04-15T06:55:08;6.43;;;5.43;;
5507;SDS011;2776;51.046;6.772;2023-04-15T06:57:35;10.93;;;6.47;;
5507;SDS011;2776;51.046;6.772;2023-04-15T07:00:02;9.00;;;6.53;;
5507;SDS011;2776;51.046;6.772;2023-04-15T07:02:29;8.40;;;6.50;;
5507;SDS011;2776;51.046;6.772;2023-04-15T07:04:56;7.60;;;6.10;;
5507;SDS011;2776;51.046;6.772;2023-04-15T07:07:23;8.23;;;6.87;;
5507;SDS011;2776;51.046;6.772;2023-04-15T07:09:51;9.07;;;7.20;;
5507;SDS011;2776;51.046;6.772;2023-04-15T07:12:18;7.37;;;6.67;;
5507;SDS011;2776;51.046;6.772;2023-04-15T07:14:45;10.93;;;7.17;;
5507;SDS011;2776;51.046;6.772;2023-04-15T07:17:13;8.33;;;7.40;;
5507;SDS011;2776;51.046;6.772;2023-04-15T07:19:40;9.17;;;8.10;;
5507;SDS011;2776;51.046;6.772;2023-04-15T07:22:07;11.57;;;9.77;;
5507;SDS011;2776;51.046;6.772;2023-04-15T07:24:33;10.87;;;9.23;;
5507;SDS011;2776;51.046;6.772;2023-04-15T07:27:01;10.30;;;8.87;;
5507;SDS011;2776;51.046;6.772;2023-04-15T07:29:28;8.30;;;7.50;;
5507;SDS011;2776;51.046;6.772;2023-04-15T07:31:55;10.87;;;8.17;;
5507;SDS011;2776;51.046;6.772;2023-04-15T07:34:22;9.70;;;7.73;;
5507;SDS011;2776;51.046;6.772;2023-04-15T07:36:49;7.83;;;7.03;;
5507;SDS011;2776;51.046;6.772;2023-04-15T07:39:16;8.80;;;7.70;;
5507;SDS011;2776;51.046;6.772;2023-04-15T07:41:43;7.97;;;7.00;;
5507;SDS011;2776;51.046;6.772;2023-04-15T07:44:11;8.23;;;6.40;;
5507;SDS011;2776;51.046;6.772;2023-04-15T07:46:38;12.07;;;7.07;;
5507;SDS011;2776;51.046;6.772;2023-04-15T07:49:05;7.57;;;6.87;;
5507;SDS011;2776;51.046;6.772;2023-04-15T07:51:32;7.50;;;6.03;;
5507;SDS011;2776;51.046;6.772;2023-04-15T07:53:59;8.67;;;5.87;;
5507;SDS011;2776;51.046;6.772;2023-04-15T07:56:28;5.37;;;4.70;;
5507;SDS011;2776;51.046;6.772;2023-04-15T07:58:55;5.67;;;4.90;;
5507;SDS011;2776;51.046;6.772;2023-04-15T08:01:23;7.17;;;5.17;;
5507;SDS011;2776;51.046;6.772;2023-04-15T08:03:50;5.60;;;4.97;;
5507;SDS011;2776;51.046;6.772;2023-04-15T08:06:17;5.20;;;4.40;;
5507;SDS011;2776;51.046;6.772;2023-04-15T08:08:44;3.17;;;2.87;;
5507;SDS011;2776;51.046;6.772;2023-04-15T08:11:11;3.23;;;2.77;;
5507;SDS011;2776;51.046;6.772;2023-04-15T08:13:38;2.80;;;2.60;;
5507;SDS011;2776;51.046;6.772;2023-04-15T08:16:12;4.93;;;2.70;;
5507;SDS011;2776;51.046;6.772;2023-04-15T08:18:43;3.77;;;2.90;;
5507;SDS011;2776;51.046;6.772;2023-04-15T08:21:10;2.87;;;2.67;;
5507;SDS011;2776;51.046;6.772;2023-04-15T08:23:37;3.40;;;3.10;;
5507;SDS011;2776;51.046;6.772;2023-04-15T08:26:04;3.40;;;3.10;;
5507;SDS011;2776;51.046;6.772;2023-04-15T08:28:31;3.20;;;2.90;;
5507;SDS011;2776;51.046;6.772;2023-04-15T08:30:58;2.57;;;2.37;;
5507;SDS011;2776;51.046;6.772;2023-04-15T08:33:25;2.60;;;2.30;;
5507;SDS011;2776;51.046;6.772;2023-04-15T08:35:54;4.83;;;3.37;;
5507;SDS011;2776;51.046;6.772;2023-04-15T08:38:21;3.27;;;2.97;;
5507;SDS011;2776;51.046;6.772;2023-04-15T08:40:48;2.97;;;2.67;;
5507;SDS011;2776;51.046;6.772;2023-04-15T08:43:18;3.23;;;2.43;;
5507;SDS011;2776;51.046;6.772;2023-04-15T08:45:48;2.27;;;2.07;;
5507;SDS011;2776;51.046;6.772;2023-04-15T08:48:17;2.67;;;2.47;;
5507;SDS011;2776;51.046;6.772;2023-04-15T08:50:44;8.13;;;5.60;;
5507;SDS011;2776;51.046;6.772;2023-04-15T08:53:14;3.23;;;2.10;;
5507;SDS011;2776;51.046;6.772;2023-04-15T08:55:42;2.27;;;2.03;;
5507;SDS011;2776;51.046;6.772;2023-04-15T08:58:10;4.10;;;3.00;;
5507;SDS011;2776;51.046;6.772;2023-04-15T09:00:37;3.87;;;3.00;;
5507;SDS011;2776;51.046;6.772;2023-04-15T09:03:05;2.97;;;2.47;;
5507;SDS011;2776;51.046;6.772;2023-04-15T09:05:32;2.20;;;2.00;;
5507;SDS011;2776;51.046;6.772;2023-04-15T09:08:00;3.23;;;2.17;;
5507;SDS011;2776;51.046;6.772;2023-04-15T09:10:28;3.97;;;2.20;;
5507;SDS011;2776;51.046;6.772;2023-04-15T09:12:56;3.97;;;2.53;;
5507;SDS011;2776;51.046;6.772;2023-04-15T09:15:24;2.70;;;2.30;;
5507;SDS011;2776;51.046;6.772;2023-04-15T09:17:51;4.13;;;2.53;;
5507;SDS011;2776;51.046;6.772;2023-04-15T09:20:18;5.13;;;3.30;;
5507;SDS011;2776;51.046;6.772;2023-04-15T09:22:46;4.87;;;3.50;;
5507;SDS011;2776;51.046;6.772;2023-04-15T09:25:26;5.60;;;3.50;;
5507;SDS011;2776;51.046;6.772;2023-04-15T09:27:55;5.13;;;3.57;;
5507;SDS011;2776;51.046;6.772;2023-04-15T09:30:23;4.60;;;3.60;;
5507;SDS011;2776;51.046;6.772;2023-04-15T09:32:50;10.77;;;7.37;;
5507;SDS011;2776;51.046;6.772;2023-04-15T09:35:19;6.17;;;5.20;;
5507;SDS011;2776;51.046;6.772;2023-04-15T09:37:47;4.23;;;3.83;;
5507;SDS011;2776;51.046;6.772;2023-04-15T09:40:14;4.80;;;3.33;;
5507;SDS011;2776;51.046;6.772;2023-04-15T09:42:57;4.67;;;3.60;;
5507;SDS011;2776;51.046;6.772;2023-04-15T09:45:26;4.43;;;4.03;;
5507;SDS011;2776;51.046;6.772;2023-04-15T09:47:53;5.80;;;3.40;;
5507;SDS011;2776;51.046;6.772;2023-04-15T09:50:20;3.20;;;2.53;;
5507;SDS011;2776;51.046;6.772;2023-04-15T09:52:46;3.40;;;3.10;;
5507;SDS011;2776;51.046;6.772;2023-04-15T09:55:13;8.83;;;3.47;;
5507;SDS011;2776;51.046;6.772;2023-04-15T09:57:42;4.63;;;3.10;;
5507;SDS011;2776;51.046;6.772;2023-04-15T10:00:11;4.03;;;3.40;;
5507;SDS011;2776;51.046;6.772;2023-04-15T10:02:39;3.40;;;3.10;;
5507;SDS011;2776;51.046;6.772;2023-04-15T10:05:07;3.97;;;3.60;;
5507;SDS011;2776;51.046;6.772;2023-04-15T10:07:36;5.10;;;4.20;;
5507;SDS011;2776;51.046;6.772;2023-04-15T10:10:05;5.47;;;4.10;;
5507;SDS011;2776;51.046;6.772;2023-04-15T10:12:33;5.27;;;3.90;;
5507;SDS011;2776;51.046;6.772;2023-04-15T10:15:04;2.73;;;2.47;;
5507;SDS011;2776;51.046;6.772;2023-04-15T10:17:32;2.93;;;2.20;;
5507;SDS011;2776;51.046;6.772;2023-04-15T10:20:01;2.40;;;2.30;;
5507;SDS011;2776;51.046;6.772;2023-04-15T10:22:29;2.20;;;2.00;;
5507;SDS011;2776;51.046;6.772;2023-04-15T10:24:57;1.77;;;1.67;;
5507;SDS011;2776;51.046;6.772;2023-04-15T10:27:25;3.53;;;2.17;;
5507;SDS011;2776;51.046;6.772;2023-04-15T10:29:53;2.33;;;2.13;;
5507;SDS011;2776;51.046;6.772;2023-04-15T10:32:23;4.63;;;3.27;;
5507;SDS011;2776;51.046;6.772;2023-04-15T10:34:50;2.77;;;2.57;;
5507;SDS011;2776;51.046;6.772;2023-04-15T10:37:19;4.00;;;3.57;;
5507;SDS011;2776;51.046;6.772;2023-04-15T10:39:47;3.23;;;2.80;;
5507;SDS011;2776;51.046;6.772;2023-04-15T10:42:15;2.73;;;2.50;;
5507;SDS011;2776;51.046;6.772;2023-04-15T10:44:43;3.93;;;2.83;;
5507;SDS011;2776;51.046;6.772;2023-04-15T10:47:11;5.37;;;3.40;;
5507;SDS011;2776;51.046;6.772;2023-04-15T10:49:44;2.87;;;2.57;;
5507;SDS011;2776;51.046;6.772;2023-04-15T10:52:13;3.40;;;2.90;;
5507;SDS011;2776;51.046;6.772;2023-04-15T10:54:41;5.10;;;3.47;;
5507;SDS011;2776;51.046;6.772;2023-04-15T10:57:13;2.40;;;2.20;;
5507;SDS011;2776;51.046;6.772;2023-04-15T11:00:00;2.70;;;2.50;;
5507;SDS011;2776;51.046;6.772;2023-04-15T11:02:40;3.70;;;2.73;;
5507;SDS011;2776;51.046;6.772;2023-04-15T11:05:13;3.90;;;3.47;;
5507;SDS011;2776;51.046;6.772;2023-04-15T11:07:46;2.83;;;2.63;;
5507;SDS011;2776;51.046;6.772;2023-04-15T11:13:15;3.67;;;3.33;;
5507;SDS011;2776;51.046;6.772;2023-04-15T11:15:46;3.03;;;2.60;;
5507;SDS011;2776;51.046;6.772;2023-04-15T11:18:14;3.30;;;3.00;;
5507;SDS011;2776;51.046;6.772;2023-04-15T11:20:43;3.60;;;3.30;;
5507;SDS011;2776;51.046;6.772;2023-04-15T11:23:12;3.47;;;3.27;;
5507;SDS011;2776;51.046;6.772;2023-04-15T11:25:40;3.00;;;2.80;;
5507;SDS011;2776;51.046;6.772;2023-04-15T11:28:07;2.80;;;2.60;;
5507;SDS011;2776;51.046;6.772;2023-04-15T11:30:34;2.63;;;2.43;;
5507;SDS011;2776;51.046;6.772;2023-04-15T11:33:02;2.70;;;2.50;;
5507;SDS011;2776;51.046;6.772;2023-04-15T11:35:30;2.77;;;2.57;;
5507;SDS011;2776;51.046;6.772;2023-04-15T11:37:59;3.40;;;2.90;;
5507;SDS011;2776;51.046;6.772;2023-04-15T11:40:29;2.13;;;2.00;;
5507;SDS011;2776;51.046;6.772;2023-04-15T11:43:03;2.70;;;2.47;;
5507;SDS011;2776;51.046;6.772;2023-04-15T11:45:31;2.40;;;2.17;;
5507;SDS011;2776;51.046;6.772;2023-04-15T11:48:07;2.50;;;2.30;;
5507;SDS011;2776;51.046;6.772;2023-04-15T11:50:35;5.17;;;2.70;;
5507;SDS011;2776;51.046;6.772;2023-04-15T11:53:06;3.17;;;2.60;;
5507;SDS011;2776;51.046;6.772;2023-04-15T11:55:41;2.77;;;2.47;;
5507;SDS011;2776;51.046;6.772;2023-04-15T11:58:11;2.80;;;2.60;;
5507;SDS011;2776;51.046;6.772;2023-04-15T12:00:39;2.93;;;2.73;;
5507;SDS011;2776;51.046;6.772;2023-04-15T12:03:13;2.60;;;2.40;;
5507;SDS011;2776;51.046;6.772;2023-04-15T12:11:14;4.53;;;4.03;;
5507;SDS011;2776;51.046;6.772;2023-04-15T12:13:42;4.80;;;4.27;;
5507;SDS011;2776;51.046;6.772;2023-04-15T12:16:09;6.33;;;5.80;;
5507;SDS011;2776;51.046;6.772;2023-04-15T12:18:36;6.80;;;6.20;;
5507;SDS011;2776;51.046;6.772;2023-04-15T12:21:04;7.47;;;6.77;;
5507;SDS011;2776;51.046;6.772;2023-04-15T12:23:35;7.20;;;6.50;;
5507;SDS011;2776;51.046;6.772;2023-04-15T12:26:05;5.93;;;5.43;;
5507;SDS011;2776;51.046;6.772;2023-04-15T12:28:33;6.43;;;5.30;;
5507;SDS011;2776;51.046;6.772;2023-04-15T12:31:05;5.67;;;5.17;;
5507;SDS011;2776;51.046;6.772;2023-04-15T12:33:32;6.50;;;5.87;;
5507;SDS011;2776;51.046;6.772;2023-04-15T12:35:59;6.77;;;6.07;;
5507;SDS011;2776;51.046;6.772;2023-04-15T12:38:27;7.40;;;6.70;;
5507;SDS011;2776;51.046;6.772;2023-04-15T12:40:53;7.77;;;7.17;;
5507;SDS011;2776;51.046;6.772;2023-04-15T12:43:21;8.60;;;7.90;;
5507;SDS011;2776;51.046;6.772;2023-04-15T12:45:48;10.80;;;9.87;;
5507;SDS011;2776;51.046;6.772;2023-04-15T12:48:15;14.67;;;13.27;;
5507;SDS011;2776;51.046;6.772;2023-04-15T12:50:42;16.73;;;15.30;;
5507;SDS011;2776;51.046;6.772;2023-04-15T12:53:09;13.53;;;12.40;;
5507;SDS011;2776;51.046;6.772;2023-04-15T12:55:35;11.30;;;10.40;;
5507;SDS011;2776;51.046;6.772;2023-04-15T12:58:02;11.33;;;10.23;;
5507;SDS011;2776;51.046;6.772;2023-04-15T13:00:30;8.57;;;7.87;;
5507;SDS011;2776;51.046;6.772;2023-04-15T13:02:59;8.70;;;7.87;;
5507;SDS011;2776;51.046;6.772;2023-04-15T13:05:26;7.63;;;7.03;;
5507;SDS011;2776;51.046;6.772;2023-04-15T13:07:53;5.50;;;4.93;;
5507;SDS011;2776;51.046;6.772;2023-04-15T13:10:20;6.30;;;5.80;;
5507;SDS011;2776;51.046;6.772;2023-04-15T13:12:47;6.03;;;5.53;;
5507;SDS011;2776;51.046;6.772;2023-04-15T13:15:17;7.03;;;6.30;;
5507;SDS011;2776;51.046;6.772;2023-04-15T13:17:46;5.93;;;5.43;;
5507;SDS011;2776;51.046;6.772;2023-04-15T13:20:13;6.37;;;5.87;;
5507;SDS011;2776;51.046;6.772;2023-04-15T13:22:41;6.80;;;6.03;;
5507;SDS011;2776;51.046;6.772;2023-04-15T13:25:08;7.50;;;5.80;;
5507;SDS011;2776;51.046;6.772;2023-04-15T13:27:35;5.10;;;4.70;;
5507;SDS011;2776;51.046;6.772;2023-04-15T13:30:02;6.33;;;5.77;;
5507;SDS011;2776;51.046;6.772;2023-04-15T13:32:29;6.50;;;5.13;;
5507;SDS011;2776;51.046;6.772;2023-04-15T13:34:58;5.00;;;4.60;;
5507;SDS011;2776;51.046;6.772;2023-04-15T13:37:25;6.40;;;5.80;;
5507;SDS011;2776;51.046;6.772;2023-04-15T13:39:51;8.43;;;7.63;;
5507;SDS011;2776;51.046;6.772;2023-04-15T13:42:18;6.90;;;6.30;;
5507;SDS011;2776;51.046;6.772;2023-04-15T13:44:46;5.53;;;4.97;;
5507;SDS011;2776;51.046;6.772;2023-04-15T13:47:12;6.60;;;5.90;;
5507;SDS011;2776;51.046;6.772;2023-04-15T13:49:40;4.97;;;4.57;;
5507;SDS011;2776;51.046;6.772;2023-04-15T13:52:08;4.77;;;4.17;;
5507;SDS011;2776;51.046;6.772;2023-04-15T13:54:35;5.73;;;5.23;;
5507;SDS011;2776;51.046;6.772;2023-04-15T13:57:01;5.03;;;4.63;;
5507;SDS011;2776;51.046;6.772;2023-04-15T13:59:28;6.40;;;5.80;;
5507;SDS011;2776;51.046;6.772;2023-04-15T14:01:55;6.27;;;5.67;;
5507;SDS011;2776;51.046;6.772;2023-04-15T14:04:22;5.40;;;5.00;;
5507;SDS011;2776;51.046;6.772;2023-04-15T14:06:48;5.13;;;4.73;;
5507;SDS011;2776;51.046;6.772;2023-04-15T14:09:17;4.87;;;4.37;;
5507;SDS011;2776;51.046;6.772;2023-04-15T14:11:46;6.67;;;4.90;;
5507;SDS011;2776;51.046;6.772;2023-04-15T14:14:12;5.27;;;4.40;;
5507;SDS011;2776;51.046;6.772;2023-04-15T14:16:39;6.17;;;4.47;;
5507;SDS011;2776;51.046;6.772;2023-04-15T14:19:06;4.87;;;4.23;;
5507;SDS011;2776;51.046;6.772;2023-04-15T14:21:33;4.80;;;4.17;;
5507;SDS011;2776;51.046;6.772;2023-04-15T14:24:00;4.07;;;3.67;;
5507;SDS011;2776;51.046;6.772;2023-04-15T14:26:28;4.97;;;4.47;;
5507;SDS011;2776;51.046;6.772;2023-04-15T14:28:54;4.40;;;3.90;;
5507;SDS011;2776;51.046;6.772;2023-04-15T14:31:21;4.80;;;3.80;;
5507;SDS011;2776;51.046;6.772;2023-04-15T14:33:48;5.47;;;3.67;;
5507;SDS011;2776;51.046;6.772;2023-04-15T14:36:15;3.83;;;3.43;;
5507;SDS011;2776;51.046;6.772;2023-04-15T14:38:41;6.00;;;3.40;;
5507;SDS011;2776;51.046;6.772;2023-04-15T14:41:08;3.40;;;3.10;;
5507;SDS011;2776;51.046;6.772;2023-04-15T14:43:37;3.60;;;3.27;;
5507;SDS011;2776;51.046;6.772;2023-04-15T14:46:04;3.33;;;3.03;;
5507;SDS011;2776;51.046;6.772;2023-04-15T14:48:32;4.77;;;3.50;;
5507;SDS011;2776;51.046;6.772;2023-04-15T14:50:59;5.73;;;3.27;;
5507;SDS011;2776;51.046;6.772;2023-04-15T14:53:26;3.77;;;3.17;;
5507;SDS011;2776;51.046;6.772;2023-04-15T14:55:53;3.00;;;2.80;;
5507;SDS011;2776;51.046;6.772;2023-04-15T14:58:19;6.63;;;2.93;;
5507;SDS011;2776;51.046;6.772;2023-04-15T15:00:47;3.90;;;3.47;;
5507;SDS011;2776;51.046;6.772;2023-04-15T15:03:14;3.60;;;3.00;;
5507;SDS011;2776;51.046;6.772;2023-04-15T15:05:42;4.37;;;3.97;;
5507;SDS011;2776;51.046;6.772;2023-04-15T15:08:11;5.03;;;3.93;;
5507;SDS011;2776;51.046;6.772;2023-04-15T15:10:39;4.03;;;3.63;;
5507;SDS011;2776;51.046;6.772;2023-04-15T15:13:06;7.13;;;4.20;;
5507;SDS011;2776;51.046;6.772;2023-04-15T15:15:34;5.80;;;3.77;;
5507;SDS011;2776;51.046;6.772;2023-04-15T15:18:03;4.93;;;3.30;;
5507;SDS011;2776;51.046;6.772;2023-04-15T15:20:30;3.87;;;3.37;;
5507;SDS011;2776;51.046;6.772;2023-04-15T15:22:58;5.67;;;3.63;;
5507;SDS011;2776;51.046;6.772;2023-04-15T15:25:25;4.33;;;3.93;;